Time;durP1;ratioP1;P1;durP2;ratioP2;P2;SDS_P1;SDS_P2;PMS_P1;PMS_P2;Temp;Humidity;BMP_temperature;BMP_pressure;BME280_temperature;BME280_humidity;BME280_pressure;Samples;Min_cycle;Max_cycle;Signal;HPM_P1;HPM_P2
2021/01/23 00:00:30;;;;;;;4.60;1.00;;;6.70;76.70;;;;;;4933057;28;80846;-67
2021/01/23 00:02:56;;;;;;;2.55;1.02;;;6.70;76.50;;;;;;4967717;28;79831;-73
2021/01/23 00:05:22;;;;;;;4.45;0.70;;;6.70;76.30;;;;;;4948804;28;82995;-68
2021/01/23 00:07:47;;;;;;;3.00;0.77;;;6.80;76.20;;;;;;4967295;28;80110;-72
2021/01/23 00:10:13;;;;;;;2.80;1.15;;;6.70;76.10;;;;;;4948831;28;82682;-72
2021/01/23 00:12:39;;;;;;;2.83;1.30;;;6.80;76.20;;;;;;4949158;28;81690;-69
2021/01/23 00:15:06;;;;;;;1.65;0.77;;;6.70;76.20;;;;;;4949514;28;81900;-72
2021/01/23 00:17:31;;;;;;;4.45;0.68;;;6.70;76.20;;;;;;4967426;28;80705;-69
2021/01/23 00:19:57;;;;;;;2.60;0.50;;;6.70;76.40;;;;;;4967167;28;80793;-69
2021/01/23 00:22:23;;;;;;;2.90;0.60;;;6.70;76.50;;;;;;4949377;28;80673;-72
2021/01/23 00:24:49;;;;;;;4.32;1.63;;;6.60;76.70;;;;;;4967013;28;80065;-70
2021/01/23 00:27:15;;;;;;;2.65;0.90;;;6.60;76.80;;;;;;4949610;28;82784;-69
2021/01/23 00:29:40;;;;;;;6.72;1.13;;;6.60;76.90;;;;;;4949628;28;82679;-69
2021/01/23 00:32:06;;;;;;;3.25;0.50;;;6.60;77.00;;;;;;4949480;28;80742;-74
2021/01/23 00:34:32;;;;;;;2.90;0.75;;;6.60;77.10;;;;;;4949013;28;79978;-74
2021/01/23 00:36:57;;;;;;;4.18;0.55;;;6.50;77.20;;;;;;4949352;28;80567;-68
2021/01/23 00:39:23;;;;;;;4.22;0.95;;;6.50;77.30;;;;;;4967046;28;80178;-73
2021/01/23 00:41:49;;;;;;;4.13;0.68;;;6.50;77.50;;;;;;4948767;28;80942;-74
2021/01/23 00:44:15;;;;;;;4.45;0.70;;;6.40;77.50;;;;;;4950719;28;79826;-66
2021/01/23 00:46:41;;;;;;;3.92;0.60;;;6.40;77.70;;;;;;4968764;28;80835;-66
2021/01/23 00:49:06;;;;;;;1.90;0.57;;;6.40;78.00;;;;;;4970137;28;79653;-66
2021/01/23 00:51:32;;;;;;;6.28;1.25;;;6.30;78.10;;;;;;4950458;28;80317;-69
2021/01/23 00:53:58;;;;;;;5.35;1.90;;;6.30;78.30;;;;;;4950869;28;82483;-66
2021/01/23 00:56:24;;;;;;;5.63;0.85;;;6.20;78.50;;;;;;4949843;28;82874;-66
2021/01/23 00:58:49;;;;;;;7.07;1.30;;;6.10;78.70;;;;;;4950171;28;80829;-79
2021/01/23 01:01:15;;;;;;;4.70;1.38;;;6.10;78.80;;;;;;4952783;28;83121;-81
2021/01/23 01:03:41;;;;;;;3.97;0.90;;;6.00;78.90;;;;;;4954346;28;83203;-90
2021/01/23 01:06:07;;;;;;;5.28;1.25;;;6.00;79.00;;;;;;4973609;28;79837;-74
2021/01/23 01:08:33;;;;;;;2.97;1.33;;;6.00;79.10;;;;;;4954347;28;82556;-87
2021/01/23 01:10:58;;;;;;;4.45;0.88;;;5.90;79.30;;;;;;4954401;28;82114;-72
2021/01/23 01:13:24;;;;;;;4.65;1.15;;;5.90;79.30;;;;;;4954418;28;81012;-66
2021/01/23 01:15:50;;;;;;;6.43;1.15;;;5.90;79.40;;;;;;4970563;28;80381;-72
2021/01/23 01:18:16;;;;;;;4.30;1.10;;;5.90;79.50;;;;;;4951963;28;82843;-72
2021/01/23 01:20:42;;;;;;;5.10;0.68;;;5.90;79.50;;;;;;4969401;28;80355;-70
2021/01/23 01:23:08;;;;;;;4.60;1.85;;;5.90;79.50;;;;;;4951898;28;83564;-73
2021/01/23 01:25:33;;;;;;;7.47;1.70;;;5.90;79.60;;;;;;4951489;28;82705;-77
2021/01/23 01:27:59;;;;;;;5.90;1.27;;;5.80;79.80;;;;;;4969282;28;81003;-76
2021/01/23 01:30:26;;;;;;;5.03;1.17;;;5.80;80.00;;;;;;4951241;28;82490;-72
2021/01/23 01:32:52;;;;;;;6.20;1.70;;;5.70;80.00;;;;;;4969449;28;81193;-78
2021/01/23 01:35:18;;;;;;;4.63;0.60;;;5.70;80.10;;;;;;4970311;28;80045;-80
2021/01/23 01:37:44;;;;;;;4.53;0.93;;;5.70;80.10;;;;;;4970276;28;81034;-68
2021/01/23 01:40:10;;;;;;;4.72;0.95;;;5.70;80.30;;;;;;4969557;28;80107;-66
2021/01/23 01:42:36;;;;;;;6.28;1.55;;;5.70;80.30;;;;;;4969453;28;80767;-74
2021/01/23 01:45:04;;;;;;;7.97;1.23;;;5.60;80.50;;;;;;4951745;28;80183;-70
2021/01/23 01:47:29;;;;;;;9.15;1.45;;;5.70;80.50;;;;;;4969567;28;81567;-79
2021/01/23 01:49:59;;;;;;;5.15;0.93;;;5.60;80.60;;;;;;4951331;28;80077;-77
2021/01/23 01:52:25;;;;;;;6.40;0.98;;;5.60;80.70;;;;;;4969336;28;80580;-70
2021/01/23 01:54:51;;;;;;;9.45;1.67;;;5.60;80.70;;;;;;4951535;28;82597;-66
2021/01/23 01:57:23;;;;;;;6.40;1.30;;;5.60;80.80;;;;;;4969723;28;80669;-66
2021/01/23 01:59:49;;;;;;;8.20;1.77;;;5.60;80.90;;;;;;4969642;28;80930;-65
2021/01/23 02:02:33;;;;;;;4.68;1.10;;;5.60;80.90;;;;;;4969075;28;80318;-69
2021/01/23 02:05:08;;;;;;;3.13;1.20;;;5.60;81.00;;;;;;4968951;28;80956;-66
2021/01/23 02:07:43;;;;;;;4.85;0.82;;;5.50;81.20;;;;;;4968629;28;80328;-66
2021/01/23 02:10:15;;;;;;;8.13;1.50;;;5.50;81.30;;;;;;4968926;28;80173;-67
2021/01/23 02:13:12;;;;;;;7.40;1.10;;;5.60;81.20;;;;;;4969115;28;80760;-68
2021/01/23 02:15:46;;;;;;;8.82;1.65;;;5.60;81.00;;;;;;4971972;28;80295;-64
2021/01/23 02:18:13;;;;;;;7.03;0.93;;;5.60;81.20;;;;;;4953635;28;83349;-66
2021/01/23 02:20:54;;;;;;;7.72;1.45;;;5.50;81.40;;;;;;4969750;28;80778;-69
2021/01/23 02:23:30;;;;;;;8.63;1.00;;;5.60;81.40;;;;;;4970011;28;80503;-76
2021/01/23 02:26:03;;;;;;;21.77;2.25;;;5.60;81.50;;;;;;4969841;28;80043;-65
2021/01/23 02:28:40;;;;;;;8.63;1.02;;;5.50;81.60;;;;;;4968948;28;79846;-79
2021/01/23 02:31:09;;;;;;;11.73;1.33;;;5.60;81.40;;;;;;4968864;28;80251;-87
2021/01/23 02:33:37;;;;;;;6.50;1.08;;;5.60;81.60;;;;;;4968951;28;81005;-83
2021/01/23 02:36:05;;;;;;;5.72;1.52;;;5.70;81.60;;;;;;4951234;28;82335;-77
2021/01/23 02:38:32;;;;;;;7.50;1.10;;;5.70;81.50;;;;;;4960319;28;80849;-75
2021/01/23 02:40:59;;;;;;;6.30;1.20;;;5.70;81.40;;;;;;4953668;28;81470;-82
2021/01/23 02:43:25;;;;;;;4.22;0.90;;;5.70;81.60;;;;;;4955091;28;83187;-80
2021/01/23 02:45:51;;;;;;;7.20;1.17;;;5.70;81.80;;;;;;4977076;28;80640;-66
2021/01/23 02:48:20;;;;;;;7.70;1.60;;;5.60;82.10;;;;;;4958111;28;80742;-74
2021/01/23 02:50:46;;;;;;;6.82;1.35;;;5.60;82.30;;;;;;4956164;28;82769;-75
2021/01/23 02:53:19;;;;;;;7.85;1.50;;;5.50;82.50;;;;;;4954602;28;79858;-79
2021/01/23 02:55:53;;;;;;;7.22;1.05;;;5.50;82.50;;;;;;4970954;28;80316;-65
2021/01/23 02:58:23;;;;;;;8.95;1.50;;;5.50;82.70;;;;;;4968903;28;80592;-64
2021/01/23 03:00:51;;;;;;;6.55;1.05;;;5.50;82.70;;;;;;4969413;28;80621;-76
2021/01/23 03:03:21;;;;;;;14.60;1.20;;;5.50;82.70;;;;;;4970919;28;79717;-74
2021/01/23 03:05:47;;;;;;;13.13;2.65;;;5.50;82.70;;;;;;4957018;28;80561;-74
2021/01/23 03:08:14;;;;;;;6.93;1.70;;;5.50;82.70;;;;;;4955608;28;82861;-64
2021/01/23 03:10:42;;;;;;;9.77;1.35;;;5.50;82.60;;;;;;4980042;28;80191;-76
2021/01/23 03:13:10;;;;;;;10.13;1.77;;;5.60;82.60;;;;;;4976935;28;79978;-84
2021/01/23 03:15:36;;;;;;;5.03;1.05;;;5.50;82.60;;;;;;4953070;28;81621;-74
2021/01/23 03:18:02;;;;;;;16.38;1.75;;;5.50;82.70;;;;;;4975916;28;80731;-71
2021/01/23 03:20:28;;;;;;;10.00;1.58;;;5.50;82.50;;;;;;4975063;28;80162;-74
2021/01/23 03:22:55;;;;;;;5.85;1.30;;;5.50;82.50;;;;;;4968235;28;80021;-76
2021/01/23 03:25:21;;;;;;;6.30;1.23;;;5.60;82.40;;;;;;4968576;28;81476;-68
2021/01/23 03:27:47;;;;;;;7.22;1.30;;;5.60;82.40;;;;;;4950133;28;80823;-70
2021/01/23 03:30:14;;;;;;;6.18;1.60;;;5.70;82.30;;;;;;4967750;28;80207;-67
2021/01/23 03:32:39;;;;;;;8.57;1.80;;;5.70;82.20;;;;;;4950246;28;83978;-80
2021/01/23 03:35:06;;;;;;;7.05;1.90;;;5.80;82.10;;;;;;4950530;28;80380;-70
2021/01/23 03:37:33;;;;;;;6.80;1.20;;;5.90;81.80;;;;;;4972900;28;80615;-70
2021/01/23 03:40:01;;;;;;;9.25;1.48;;;5.90;81.60;;;;;;4974134;28;79713;-66
2021/01/23 03:42:27;;;;;;;5.57;1.30;;;6.00;81.40;;;;;;4977338;28;80757;-69
2021/01/23 03:44:53;;;;;;;5.53;1.60;;;6.00;81.30;;;;;;4974860;28;79788;-67
2021/01/23 03:47:18;;;;;;;7.07;1.45;;;6.10;81.20;;;;;;4971384;28;79804;-77
2021/01/23 03:49:44;;;;;;;13.88;2.60;;;6.10;81.10;;;;;;4969892;28;79842;-69
2021/01/23 03:52:11;;;;;;;10.35;1.88;;;6.20;81.10;;;;;;4968871;28;79822;-74
2021/01/23 03:54:39;;;;;;;7.53;1.40;;;6.20;81.00;;;;;;4950267;28;80818;-73
2021/01/23 03:57:05;;;;;;;9.25;2.22;;;6.20;81.00;;;;;;4950319;28;80315;-71
2021/01/23 03:59:31;;;;;;;9.45;1.45;;;6.20;81.00;;;;;;4967932;28;80511;-76
2021/01/23 04:01:57;;;;;;;10.40;1.85;;;6.20;81.10;;;;;;4950115;28;81237;-82
2021/01/23 04:04:23;;;;;;;6.78;1.60;;;6.20;81.20;;;;;;4949979;28;80676;-82
2021/01/23 04:06:48;;;;;;;7.93;1.77;;;6.20;81.20;;;;;;4967665;28;81049;-85
2021/01/23 04:09:14;;;;;;;11.25;1.88;;;6.20;81.20;;;;;;4967260;28;80257;-69
2021/01/23 04:11:41;;;;;;;12.02;1.60;;;6.20;81.30;;;;;;4948954;28;83277;-66
2021/01/23 04:14:07;;;;;;;8.05;1.90;;;6.20;81.40;;;;;;4948639;28;82251;-66
2021/01/23 04:16:32;;;;;;;7.13;1.33;;;6.20;81.40;;;;;;4967614;28;79873;-66
2021/01/23 04:18:58;;;;;;;9.60;1.40;;;6.20;81.40;;;;;;4967353;28;79769;-65
2021/01/23 04:21:24;;;;;;;8.35;1.27;;;6.10;81.50;;;;;;4967330;28;80524;-66
2021/01/23 04:23:50;;;;;;;6.22;1.85;;;6.10;81.50;;;;;;4967086;28;81570;-66
2021/01/23 04:26:15;;;;;;;8.88;1.83;;;6.10;81.60;;;;;;4949092;28;82443;-66
2021/01/23 04:28:41;;;;;;;19.48;1.52;;;6.10;81.60;;;;;;4949557;28;82248;-67
2021/01/23 04:31:08;;;;;;;12.35;2.25;;;6.00;81.80;;;;;;4948984;28;80798;-67
2021/01/23 04:33:36;;;;;;;10.90;1.88;;;6.00;81.90;;;;;;4966778;28;80358;-67
2021/01/23 04:36:03;;;;;;;9.43;1.40;;;6.00;81.90;;;;;;4949168;28;80910;-67
2021/01/23 04:38:29;;;;;;;10.15;2.00;;;6.00;81.90;;;;;;4952218;28;80851;-68
2021/01/23 04:40:55;;;;;;;9.27;1.40;;;5.90;81.90;;;;;;4952161;28;82566;-67
2021/01/23 04:43:22;;;;;;;5.80;1.08;;;5.90;82.00;;;;;;4970395;28;79549;-67
2021/01/23 04:45:48;;;;;;;15.50;2.85;;;5.90;81.90;;;;;;4952516;28;81210;-72
2021/01/23 04:48:16;;;;;;;8.10;1.50;;;5.90;81.90;;;;;;4970175;28;79968;-78
2021/01/23 04:50:46;;;;;;;8.02;1.10;;;5.90;81.90;;;;;;4953099;28;79822;-68
2021/01/23 04:53:13;;;;;;;5.35;1.30;;;5.90;81.80;;;;;;4953865;28;82360;-67
2021/01/23 04:55:39;;;;;;;8.32;1.48;;;5.90;81.80;;;;;;4954271;28;79888;-72
2021/01/23 04:58:05;;;;;;;8.20;1.27;;;6.00;81.70;;;;;;4954515;28;80080;-69
2021/01/23 05:00:31;;;;;;;10.55;1.25;;;6.00;81.70;;;;;;4952508;28;82578;-73
2021/01/23 05:03:07;;;;;;;4.13;1.10;;;6.10;81.60;;;;;;4970025;28;79780;-70
2021/01/23 05:05:34;;;;;;;14.98;2.58;;;6.10;81.50;;;;;;4970173;28;80008;-66
2021/01/23 05:08:11;;;;;;;8.95;2.13;;;6.10;81.50;;;;;;4969859;28;80213;-70
2021/01/23 05:10:38;;;;;;;10.05;2.20;;;6.10;81.60;;;;;;4969665;28;81257;-75
2021/01/23 05:13:15;;;;;;;11.95;1.55;;;6.00;81.80;;;;;;4952474;28;82350;-66
2021/01/23 05:15:45;;;;;;;5.03;1.08;;;6.00;81.80;;;;;;4952084;28;81227;-73
2021/01/23 05:18:12;;;;;;;10.55;1.58;;;6.00;81.90;;;;;;4952123;28;81243;-76
2021/01/23 05:20:42;;;;;;;8.27;1.30;;;6.00;81.90;;;;;;4972686;28;81314;-73
2021/01/23 05:23:14;;;;;;;10.30;1.95;;;6.00;82.00;;;;;;4956677;28;82564;-67
2021/01/23 05:25:41;;;;;;;7.82;2.30;;;6.00;82.30;;;;;;4961967;28;79940;-67
2021/01/23 05:28:09;;;;;;;10.80;1.65;;;5.90;82.40;;;;;;4959529;28;82604;-70
2021/01/23 05:30:52;;;;;;;7.93;1.90;;;6.00;82.50;;;;;;4971678;28;80542;-65
2021/01/23 05:33:26;;;;;;;14.03;1.83;;;6.10;82.50;;;;;;4952089;28;82398;-66
2021/01/23 05:36:01;;;;;;;15.35;1.75;;;6.10;82.40;;;;;;4951414;28;82964;-67
2021/01/23 05:38:30;;;;;;;10.57;1.95;;;6.10;82.40;;;;;;4969479;28;80188;-73
2021/01/23 05:41:09;;;;;;;7.85;1.45;;;6.10;82.40;;;;;;4951361;28;82069;-67
2021/01/23 05:43:39;;;;;;;13.70;1.70;;;6.00;82.50;;;;;;4969627;28;80278;-68
2021/01/23 05:46:16;;;;;;;12.23;2.60;;;6.00;82.80;;;;;;4951166;28;82132;-67
2021/01/23 05:48:47;;;;;;;8.40;1.33;;;6.00;83.10;;;;;;4951761;28;80595;-67
2021/01/23 05:51:15;;;;;;;8.70;2.15;;;5.90;83.30;;;;;;4951391;28;80809;-69
2021/01/23 05:53:41;;;;;;;8.65;1.50;;;5.90;83.20;;;;;;4969211;28;80247;-67
2021/01/23 05:56:07;;;;;;;4.43;1.13;;;5.90;83.20;;;;;;4950730;28;82125;-71
2021/01/23 05:58:35;;;;;;;11.07;1.80;;;5.90;83.30;;;;;;4951039;28;81018;-67
2021/01/23 06:01:29;;;;;;;7.30;1.63;;;5.90;83.30;;;;;;4969850;28;80674;-79
2021/01/23 06:03:58;;;;;;;12.30;2.15;;;5.90;83.30;;;;;;4973764;28;79876;-67
2021/01/23 06:06:23;;;;;;;14.57;2.45;;;5.90;83.40;;;;;;4957220;28;79758;-73
2021/01/23 06:08:51;;;;;;;12.85;2.13;;;5.90;83.70;;;;;;4962113;28;79981;-64
2021/01/23 06:11:20;;;;;;;12.75;2.30;;;5.90;83.70;;;;;;4959530;28;81518;-67
2021/01/23 06:13:48;;;;;;;10.85;2.78;;;5.90;83.50;;;;;;4951440;28;82465;-66
2021/01/23 06:16:32;;;;;;;9.00;2.13;;;5.90;83.40;;;;;;4969161;28;81163;-69
2021/01/23 06:19:04;;;;;;;12.55;2.40;;;6.10;83.40;;;;;;4950959;28;80835;-66
2021/01/23 06:21:45;;;;;;;6.82;1.95;;;6.10;83.40;;;;;;4951443;28;80909;-67
2021/01/23 06:24:41;;;;;;;6.22;1.70;;;6.20;83.30;;;;;;4950920;28;83126;-72
2021/01/23 06:27:07;;;;;;;7.25;1.50;;;6.20;83.20;;;;;;4950700;28;82689;-69
2021/01/23 06:29:41;;;;;;;9.50;1.73;;;6.20;83.30;;;;;;4969415;28;79942;-70
2021/01/23 06:32:13;;;;;;;9.73;3.20;;;6.30;83.20;;;;;;4951171;28;83141;-66
2021/01/23 06:35:01;;;;;;;8.07;1.90;;;6.30;83.30;;;;;;4969078;28;82389;-69
2021/01/23 06:37:41;;;;;;;14.23;3.60;;;6.30;83.30;;;;;;4969778;28;81085;-70
2021/01/23 06:40:12;;;;;;;10.80;2.15;;;6.30;83.50;;;;;;4951358;28;80652;-66
2021/01/23 06:42:43;;;;;;;15.27;2.28;;;6.20;83.60;;;;;;4969780;28;80475;-68
2021/01/23 06:45:10;;;;;;;11.70;2.42;;;6.20;83.60;;;;;;4968938;28;79834;-67
2021/01/23 06:47:44;;;;;;;13.52;2.17;;;6.30;83.50;;;;;;4968592;28;80606;-68
2021/01/23 06:50:10;;;;;;;9.05;1.80;;;6.40;83.60;;;;;;4969017;28;79795;-72
2021/01/23 06:52:50;;;;;;;7.28;1.45;;;6.40;83.50;;;;;;4968435;28;80644;-68
2021/01/23 06:55:36;;;;;;;10.40;1.48;;;6.40;83.50;;;;;;4950476;28;83414;-72
2021/01/23 06:58:02;;;;;;;8.80;1.55;;;6.40;83.40;;;;;;4950405;28;81255;-71
2021/01/23 07:00:34;;;;;;;6.80;2.13;;;6.40;83.30;;;;;;4950734;28;80555;-70
2021/01/23 07:03:27;;;;;;;6.15;1.38;;;6.60;83.10;;;;;;4950749;28;80733;-71
2021/01/23 07:05:55;;;;;;;9.47;1.20;;;6.60;82.90;;;;;;4946628;28;82757;-67
2021/01/23 07:08:32;;;;;;;4.75;1.33;;;6.70;82.90;;;;;;4968797;28;80021;-68
2021/01/23 07:11:18;;;;;;;8.07;1.45;;;6.70;82.90;;;;;;4950377;28;80494;-67
2021/01/23 07:14:08;;;;;;;10.57;1.48;;;6.70;82.90;;;;;;4968563;28;79879;-70
2021/01/23 07:16:38;;;;;;;3.58;1.13;;;6.80;83.00;;;;;;4951274;28;80489;-75
2021/01/23 07:19:08;;;;;;;6.25;1.10;;;6.80;83.00;;;;;;4969206;28;80746;-84
2021/01/23 07:21:38;;;;;;;8.40;1.60;;;6.80;82.90;;;;;;4950943;28;82794;-81
2021/01/23 07:24:04;;;;;;;5.28;1.35;;;6.80;82.80;;;;;;4968814;28;81131;-80
2021/01/23 07:26:33;;;;;;;6.07;1.75;;;6.80;82.70;;;;;;4950994;28;80986;-73
2021/01/23 07:28:59;;;;;;;9.02;1.50;;;6.80;82.70;;;;;;4950028;28;79996;-68
2021/01/23 07:31:30;;;;;;;6.03;1.42;;;6.80;82.70;;;;;;4950775;28;80363;-89
2021/01/23 07:33:58;;;;;;;6.65;1.60;;;6.70;82.70;;;;;;4951005;28;80034;-78
2021/01/23 07:36:41;;;;;;;9.73;1.17;;;6.70;82.60;;;;;;4951960;28;82974;-87
2021/01/23 07:39:13;;;;;;;8.55;1.33;;;6.80;82.50;;;;;;4969143;28;79907;-84
2021/01/23 07:41:50;;;;;;;5.72;1.23;;;6.70;82.50;;;;;;4950164;28;80667;-66
2021/01/23 07:44:18;;;;;;;9.02;1.60;;;6.70;82.60;;;;;;4949663;28;82637;-64
2021/01/23 07:46:45;;;;;;;8.93;1.80;;;6.70;82.60;;;;;;4967217;28;80173;-64
2021/01/23 07:49:22;;;;;;;6.40;1.63;;;6.80;82.50;;;;;;4949395;28;79897;-65
2021/01/23 07:51:48;;;;;;;7.75;1.52;;;6.80;82.30;;;;;;4949662;28;81570;-65
2021/01/23 07:54:14;;;;;;;7.10;2.03;;;6.80;82.30;;;;;;4949464;28;80927;-63
2021/01/23 07:56:51;;;;;;;8.65;1.67;;;6.80;82.20;;;;;;4948757;28;81625;-67
2021/01/23 07:59:18;;;;;;;5.25;1.80;;;6.70;82.00;;;;;;4949262;28;83509;-66
2021/01/23 08:01:44;;;;;;;10.02;1.55;;;6.70;82.00;;;;;;4949318;28;80266;-65
2021/01/23 08:04:33;;;;;;;5.38;1.50;;;6.80;81.90;;;;;;4949196;28;82829;-66
2021/01/23 08:07:25;;;;;;;8.27;1.92;;;6.90;81.80;;;;;;4949406;28;79994;-66
2021/01/23 08:10:07;;;;;;;10.55;2.45;;;6.90;81.60;;;;;;4948911;28;80721;-65
2021/01/23 08:12:34;;;;;;;8.45;1.70;;;6.90;81.40;;;;;;4967996;28;80741;-66
2021/01/23 08:15:00;;;;;;;9.50;1.63;;;6.90;81.30;;;;;;4952309;28;83069;-66
2021/01/23 08:17:44;;;;;;;8.60;1.98;;;7.00;81.20;;;;;;4952531;28;81372;-70
2021/01/23 08:20:12;;;;;;;9.73;1.92;;;7.00;81.10;;;;;;4952450;28;82786;-68
2021/01/23 08:23:24;;;;;;;11.20;1.60;;;7.00;81.00;;;;;;4952503;28;80513;-68
2021/01/23 08:25:51;;;;;;;5.32;1.20;;;7.10;80.90;;;;;;4949057;28;82878;-68
2021/01/23 08:28:32;;;;;;;7.93;1.67;;;7.00;80.90;;;;;;4970241;28;80268;-68
2021/01/23 08:31:13;;;;;;;8.88;1.70;;;7.10;80.70;;;;;;4952101;28;83007;-66
2021/01/23 08:33:39;;;;;;;9.50;1.67;;;7.20;80.50;;;;;;4970338;28;80112;-70
2021/01/23 08:36:06;;;;;;;10.60;2.25;;;7.10;80.40;;;;;;4952311;28;83580;-69
2021/01/23 08:38:32;;;;;;;7.50;1.20;;;7.20;80.20;;;;;;4970588;28;79695;-67
2021/01/23 08:40:58;;;;;;;6.35;1.63;;;7.20;80.00;;;;;;4952267;28;80845;-68
2021/01/23 08:43:24;;;;;;;9.48;2.08;;;7.30;79.80;;;;;;4952200;28;82356;-63
2021/01/23 08:45:49;;;;;;;8.07;1.45;;;7.30;79.80;;;;;;4952625;28;80672;-64
2021/01/23 08:48:16;;;;;;;8.48;2.58;;;7.20;79.90;;;;;;4970004;28;79885;-65
2021/01/23 08:50:42;;;;;;;7.40;1.50;;;7.30;79.70;;;;;;4951977;28;81867;-63
2021/01/23 08:53:08;;;;;;;6.07;1.08;;;7.30;79.60;;;;;;4952383;28;80740;-71
2021/01/23 08:55:34;;;;;;;14.23;2.45;;;7.30;79.50;;;;;;4951898;28;80874;-70
2021/01/23 08:57:59;;;;;;;7.07;1.58;;;7.40;79.30;;;;;;4952113;28;79947;-71
2021/01/23 09:00:25;;;;;;;9.75;1.80;;;7.40;78.80;;;;;;4951810;28;79837;-71
2021/01/23 09:02:51;;;;;;;7.88;1.80;;;7.60;78.30;;;;;;4952119;28;81635;-70
2021/01/23 09:05:18;;;;;;;9.15;1.50;;;7.70;77.90;;;;;;4951538;28;83152;-74
2021/01/23 09:07:44;;;;;;;4.22;1.48;;;7.80;77.50;;;;;;4935652;28;81594;-73
2021/01/23 09:10:12;;;;;;;5.45;1.20;;;8.00;76.90;;;;;;4952352;28;82318;-79
2021/01/23 09:12:38;;;;;;;6.65;1.38;;;8.10;76.60;;;;;;4952102;28;82184;-72
2021/01/23 09:15:06;;;;;;;7.95;1.90;;;8.10;76.40;;;;;;4952091;28;82677;-73
2021/01/23 09:17:32;;;;;;;10.45;1.90;;;8.20;76.40;;;;;;4969731;28;80205;-73
2021/01/23 09:19:58;;;;;;;6.55;1.80;;;8.30;76.60;;;;;;4951879;28;81070;-77
2021/01/23 09:22:23;;;;;;;11.57;1.65;;;8.40;76.20;;;;;;4951211;28;82407;-68
2021/01/23 09:24:49;;;;;;;6.07;1.75;;;8.50;76.00;;;;;;4968701;28;81074;-72
2021/01/23 09:27:18;;;;;;;8.40;1.70;;;8.60;76.00;;;;;;4951714;28;80385;-74
2021/01/23 09:29:50;;;;;;;12.05;3.20;;;8.60;75.70;;;;;;4969837;28;80591;-75
2021/01/23 09:32:18;;;;;;;9.07;1.98;;;8.70;75.70;;;;;;4951883;28;80238;-73
2021/01/23 09:34:44;;;;;;;6.03;1.85;;;8.80;75.50;;;;;;4951806;28;81925;-73
2021/01/23 09:37:10;;;;;;;10.32;1.55;;;8.80;75.50;;;;;;4969912;28;79643;-74
2021/01/23 09:39:35;;;;;;;7.78;2.47;;;8.80;75.30;;;;;;4969710;28;80558;-72
2021/01/23 09:42:02;;;;;;;9.73;1.48;;;8.70;75.50;;;;;;4951642;28;80616;-73
2021/01/23 09:44:28;;;;;;;12.63;2.22;;;8.70;75.60;;;;;;4969580;28;81053;-75
2021/01/23 09:46:54;;;;;;;7.10;1.60;;;8.80;75.60;;;;;;4951509;28;81204;-72
2021/01/23 09:49:21;;;;;;;8.20;2.03;;;8.80;75.50;;;;;;4952034;28;82338;-72
2021/01/23 09:51:48;;;;;;;9.93;2.72;;;8.90;75.50;;;;;;4951541;28;82213;-69
2021/01/23 09:54:14;;;;;;;17.05;2.85;;;9.00;75.00;;;;;;4951532;28;80802;-75
2021/01/23 09:56:39;;;;;;;8.75;2.33;;;9.10;74.50;;;;;;4951469;28;80372;-72
2021/01/23 09:59:05;;;;;;;10.65;1.42;;;9.10;74.50;;;;;;4951231;28;82753;-74
2021/01/23 10:01:38;;;;;;;8.75;2.22;;;9.10;74.20;;;;;;4969407;28;80573;-75
2021/01/23 10:04:04;;;;;;;;;;;9.30;74.10;;;;;;4951491;28;79946;-73
2021/01/23 10:06:30;;;;;;;10.60;2.33;;;9.40;73.50;;;;;;4955545;28;81172;-73
2021/01/23 10:08:56;;;;;;;8.38;1.58;;;9.40;73.50;;;;;;4951175;28;83186;-75
2021/01/23 10:11:25;;;;;;;9.05;1.33;;;9.50;73.20;;;;;;4951294;28;80208;-74
2021/01/23 10:13:51;;;;;;;9.45;1.77;;;9.50;73.20;;;;;;4951129;28;79952;-72
2021/01/23 10:16:17;;;;;;;11.32;1.92;;;9.50;73.30;;;;;;4951036;28;81414;-72
2021/01/23 10:18:43;;;;;;;8.43;2.17;;;9.50;73.00;;;;;;4950812;28;82382;-73
2021/01/23 10:21:15;;;;;;;8.82;1.98;;;9.50;73.30;;;;;;4969322;28;79542;-73
2021/01/23 10:23:41;;;;;;;6.90;1.27;;;9.50;73.50;;;;;;4950858;28;80821;-73
2021/01/23 10:26:06;;;;;;;6.55;2.00;;;9.40;73.60;;;;;;4968435;28;80210;-73
2021/01/23 10:28:32;;;;;;;15.23;2.42;;;9.40;74.20;;;;;;4968282;28;79829;-74
2021/01/23 10:30:58;;;;;;;8.40;1.48;;;9.30;74.60;;;;;;4950540;28;81239;-73
2021/01/23 10:33:24;;;;;;;12.68;2.08;;;9.20;75.20;;;;;;4968407;28;81821;-74
2021/01/23 10:35:50;;;;;;;9.95;1.52;;;9.10;75.60;;;;;;4967850;28;80316;-73
2021/01/23 10:38:16;;;;;;;9.07;2.38;;;9.20;75.70;;;;;;4950317;28;81242;-73
2021/01/23 10:40:44;;;;;;;6.40;1.95;;;9.40;75.50;;;;;;4968497;28;80011;-74
2021/01/23 10:43:10;;;;;;;9.35;2.08;;;9.50;75.20;;;;;;4968478;28;80926;-71
2021/01/23 10:45:36;;;;;;;8.10;1.50;;;9.60;75.00;;;;;;4950506;28;80609;-74
2021/01/23 10:48:02;;;;;;;12.95;2.35;;;9.60;75.00;;;;;;4950537;28;82428;-71
2021/01/23 10:50:28;;;;;;;11.98;1.52;;;9.50;74.90;;;;;;4968237;28;79903;-74
2021/01/23 10:52:54;;;;;;;16.58;2.20;;;9.60;74.90;;;;;;4968387;28;80756;-73
2021/01/23 10:55:20;;;;;;;7.38;1.80;;;9.60;74.60;;;;;;4967746;28;80708;-73
2021/01/23 10:57:46;;;;;;;5.55;1.50;;;9.70;74.60;;;;;;4968760;28;79874;-74
2021/01/23 11:00:12;;;;;;;7.95;2.30;;;9.90;74.10;;;;;;4950510;28;81316;-73
2021/01/23 11:02:39;;;;;;;6.30;1.65;;;9.80;73.70;;;;;;4967790;28;80470;-77
2021/01/23 11:05:07;;;;;;;7.10;1.40;;;9.80;74.00;;;;;;4950348;28;82546;-71
2021/01/23 11:07:33;;;;;;;8.50;1.55;;;9.70;74.20;;;;;;4968050;28;80856;-73
2021/01/23 11:09:58;;;;;;;5.15;1.63;;;9.60;74.50;;;;;;4950344;28;80403;-71
2021/01/23 11:12:24;;;;;;;6.65;1.50;;;9.60;74.70;;;;;;4968633;28;80434;-74
2021/01/23 11:14:50;;;;;;;10.93;1.48;;;9.50;75.10;;;;;;4968824;28;80724;-70
2021/01/23 11:17:16;;;;;;;6.50;1.38;;;9.50;75.10;;;;;;4950405;28;83509;-70
2021/01/23 11:19:41;;;;;;;7.72;1.83;;;9.60;75.10;;;;;;4950122;28;81731;-68
2021/01/23 11:22:07;;;;;;;10.07;1.60;;;9.60;75.00;;;;;;4950198;28;83542;-70
2021/01/23 11:24:33;;;;;;;8.25;1.48;;;9.50;74.90;;;;;;4949997;28;80791;-71
2021/01/23 11:26:59;;;;;;;9.43;2.15;;;9.50;74.90;;;;;;4968167;28;80435;-69
2021/01/23 11:29:25;;;;;;;5.30;1.65;;;9.60;74.70;;;;;;4949841;28;81752;-71
2021/01/23 11:31:51;;;;;;;8.35;1.95;;;9.50;74.60;;;;;;4967613;28;81501;-70
2021/01/23 11:34:17;;;;;;;15.95;1.73;;;9.50;74.60;;;;;;4950281;28;79994;-69
2021/01/23 11:36:43;;;;;;;10.13;2.15;;;9.50;74.40;;;;;;4967692;28;80967;-70
2021/01/23 11:39:09;;;;;;;8.73;1.90;;;9.60;74.30;;;;;;4950192;28;81878;-75
2021/01/23 11:41:35;;;;;;;9.05;2.13;;;9.60;74.20;;;;;;4967499;28;80524;-68
2021/01/23 11:44:01;;;;;;;9.45;1.65;;;9.60;74.20;;;;;;4967845;28;79946;-72
2021/01/23 11:46:27;;;;;;;11.35;1.85;;;9.60;74.30;;;;;;4966708;28;80625;-72
2021/01/23 11:48:53;;;;;;;11.30;1.52;;;9.70;73.60;;;;;;4949441;28;82728;-72
2021/01/23 11:51:19;;;;;;;10.82;1.77;;;9.60;73.70;;;;;;4949501;28;82458;-70
2021/01/23 11:53:45;;;;;;;8.57;1.77;;;9.60;73.60;;;;;;4949338;28;81327;-72
2021/01/23 11:56:10;;;;;;;14.23;2.67;;;9.70;73.50;;;;;;4949121;28;81750;-67
2021/01/23 11:58:36;;;;;;;14.80;3.10;;;9.80;73.50;;;;;;4949200;28;79988;-72
2021/01/23 12:01:03;;;;;;;7.85;1.70;;;9.90;73.30;;;;;;4949493;28;82360;-76
2021/01/23 12:03:28;;;;;;;12.10;1.92;;;10.00;72.70;;;;;;4949790;28;83128;-75
2021/01/23 12:05:54;;;;;;;10.50;1.63;;;10.10;72.60;;;;;;4949441;28;80008;-74
2021/01/23 12:08:20;;;;;;;9.18;1.73;;;10.20;71.80;;;;;;4949302;28;82386;-72
2021/01/23 12:10:46;;;;;;;8.73;1.63;;;10.10;71.80;;;;;;4967108;28;81058;-76
2021/01/23 12:13:13;;;;;;;9.38;2.03;;;10.10;71.80;;;;;;4967378;28;79855;-75
2021/01/23 12:15:39;;;;;;;7.90;1.83;;;10.10;71.70;;;;;;4949222;28;83022;-76
2021/01/23 12:18:05;;;;;;;8.77;2.13;;;10.20;71.60;;;;;;4949629;28;82366;-76
2021/01/23 12:20:33;;;;;;;36.63;2.63;;;10.20;71.20;;;;;;4949538;28;81145;-73
2021/01/23 12:22:59;;;;;;;9.43;2.05;;;10.20;71.10;;;;;;4949028;28;79853;-72
2021/01/23 12:25:28;;;;;;;11.68;2.75;;;10.20;71.20;;;;;;4949323;28;81120;-74
2021/01/23 12:27:54;;;;;;;9.98;1.70;;;10.20;70.80;;;;;;4966967;28;80729;-77
2021/01/23 12:30:20;;;;;;;7.18;1.90;;;10.30;70.90;;;;;;4967387;28;79883;-74
2021/01/23 12:32:47;;;;;;;7.80;1.70;;;10.40;70.00;;;;;;4966525;28;80233;-75
2021/01/23 12:35:14;;;;;;;13.25;2.30;;;10.60;69.70;;;;;;4949353;28;80692;-75
2021/01/23 12:37:41;;;;;;;8.88;1.20;;;10.70;69.50;;;;;;4949374;28;80510;-70
2021/01/23 12:40:08;;;;;;;10.00;2.70;;;10.70;69.40;;;;;;4966070;28;80780;-74
2021/01/23 12:42:35;;;;;;;10.95;1.60;;;10.70;69.40;;;;;;4933094;28;80801;-73
2021/01/23 12:45:02;;;;;;;12.43;2.38;;;11.10;68.50;;;;;;4948967;28;82922;-71
2021/01/23 12:47:28;;;;;;;11.95;2.05;;;11.10;68.20;;;;;;4948932;28;82203;-75
2021/01/23 12:49:54;;;;;;;7.72;2.47;;;11.00;68.60;;;;;;4948471;28;81698;-70
2021/01/23 12:52:20;;;;;;;11.00;1.67;;;11.00;69.20;;;;;;4948688;28;80263;-75
2021/01/23 12:54:46;;;;;;;11.90;2.55;;;10.90;69.40;;;;;;4966724;28;80745;-74
2021/01/23 12:57:13;;;;;;;9.27;1.83;;;10.80;70.00;;;;;;4948372;28;81691;-72
2021/01/23 12:59:38;;;;;;;12.73;2.40;;;10.70;70.30;;;;;;4969082;28;80649;-71